createdAt,value
2018-12-22T00:01:17.936Z,97873.35
2018-12-22T00:06:21.520Z,97873.35
2018-12-22T00:11:24.981Z,97872.09
2018-12-22T00:16:28.445Z,97876.31
2018-12-22T00:21:31.952Z,97876.03
2018-12-22T00:26:35.657Z,97870.16
2018-12-22T00:31:40.352Z,97878.91
2018-12-22T00:36:43.867Z,97870.57
2018-12-22T00:41:47.397Z,97876.13
2018-12-22T00:46:51.231Z,97877.94
2018-12-22T00:52:00.421Z,97883.13
2018-12-22T00:57:04.304Z,97885.16
2018-12-22T01:02:07.804Z,97869.81
2018-12-22T01:07:11.312Z,97884.31
2018-12-22T01:12:14.876Z,97881.36
2018-12-22T01:17:18.329Z,97884.18
2018-12-22T01:22:21.820Z,97882.56
2018-12-22T01:27:25.344Z,97882.30
2018-12-22T01:32:28.773Z,97867.50
2018-12-22T01:37:32.820Z,97883.38
2018-12-22T01:42:36.978Z,97888.30
2018-12-22T01:47:40.511Z,97879.14
2018-12-22T01:52:44.089Z,97883.42
2018-12-22T01:57:47.542Z,97886.97
2018-12-22T02:02:51.819Z,97882.78
2018-12-22T02:07:55.393Z,97893.56
2018-12-22T02:12:58.835Z,97892.05
2018-12-22T02:18:02.281Z,97909.36
2018-12-22T02:23:06.751Z,97902.12
2018-12-22T02:28:10.840Z,97890.34
2018-12-22T02:33:14.265Z,97876.90
2018-12-22T02:38:17.913Z,97879.84
2018-12-22T02:43:21.448Z,97872.08
2018-12-22T02:48:24.988Z,97874.52
2018-12-22T02:53:28.471Z,97873.00
2018-12-22T02:58:31.898Z,97875.85
2018-12-22T03:03:36.428Z,97871.19
2018-12-22T03:08:39.872Z,97869.52
2018-12-22T03:13:43.374Z,97862.92
2018-12-22T03:18:47.114Z,97858.48
2018-12-22T03:23:50.544Z,97846.09
2018-12-22T03:28:54.094Z,97849.73
2018-12-22T03:33:57.504Z,97856.11
2018-12-22T03:39:01.148Z,97847.02
2018-12-22T03:44:04.781Z,97844.00
2018-12-22T03:49:08.196Z,97836.27
2018-12-22T03:54:11.721Z,97829.14
2018-12-22T03:59:24.470Z,97824.80
2018-12-22T04:04:20.585Z,97820.23
2018-12-22T04:09:24.015Z,97821.28
2018-12-22T04:14:27.866Z,97823.12
2018-12-22T04:19:31.508Z,97829.36
2018-12-22T04:24:34.997Z,97855.07
2018-12-22T04:29:38.504Z,97839.43
2018-12-22T04:34:41.908Z,97818.70
2018-12-22T04:39:45.325Z,97803.56
2018-12-22T04:44:48.878Z,97800.91
2018-12-22T04:49:52.300Z,97818.11
2018-12-22T04:54:55.825Z,97834.33
2018-12-22T04:59:59.338Z,97835.08
2018-12-22T05:05:03.000Z,97828.78
2018-12-22T05:10:07.043Z,97833.89
2018-12-22T05:15:10.477Z,97845.35
2018-12-22T05:20:15.459Z,97857.47
2018-12-22T05:25:19.127Z,97855.16
2018-12-22T05:30:22.620Z,97854.53
2018-12-22T05:35:26.028Z,97856.09
2018-12-22T05:40:29.451Z,97867.08
2018-12-22T05:45:32.864Z,97872.04
2018-12-22T05:50:36.397Z,97868.36
2018-12-22T05:55:39.952Z,97872.42
2018-12-22T06:00:43.364Z,97877.77
2018-12-22T06:05:46.863Z,97893.92
2018-12-22T06:10:50.536Z,97897.72
2018-12-22T06:15:53.952Z,97905.27
2018-12-22T06:20:57.564Z,97898.54
2018-12-22T06:26:01.120Z,97897.84
2018-12-22T06:31:04.691Z,97916.88
2018-12-22T06:36:08.100Z,97909.41
2018-12-22T06:41:11.507Z,97908.91
2018-12-22T06:46:15.040Z,97912.02
2018-12-22T06:51:18.548Z,97919.65
2018-12-22T06:56:21.968Z,97927.55
2018-12-22T07:01:25.540Z,97941.91
2018-12-22T07:06:28.956Z,97947.22
2018-12-22T07:11:32.457Z,97955.01
2018-12-22T07:16:35.860Z,97959.63
2018-12-22T07:21:39.660Z,97969.87
2018-12-22T07:26:43.071Z,97976.83
2018-12-22T07:31:46.668Z,97980.78
2018-12-22T07:36:50.144Z,97976.83
2018-12-22T07:41:53.597Z,97976.91
2018-12-22T07:46:57.152Z,97990.98
2018-12-22T07:52:00.633Z,98001.59
2018-12-22T07:57:05.784Z,98014.58
2018-12-22T08:02:09.201Z,98021.39
2018-12-22T08:07:12.741Z,98067.45
2018-12-22T08:12:16.281Z,98078.28
2018-12-22T08:17:19.719Z,98092.02
2018-12-22T08:22:24.659Z,98089.45
2018-12-22T08:27:28.223Z,98099.13
2018-12-22T08:32:32.011Z,98089.30
2018-12-22T08:37:35.653Z,98120.29
2018-12-22T08:42:39.358Z,98166.14
2018-12-22T08:47:43.156Z,98165.85
2018-12-22T08:52:46.564Z,98199.61
2018-12-22T08:57:49.988Z,98198.98
2018-12-22T09:02:53.552Z,98211.50
2018-12-22T09:07:56.948Z,98223.59
2018-12-22T09:13:00.503Z,98226.39
2018-12-22T09:18:04.035Z,98246.19
2018-12-22T09:23:07.666Z,98270.20
2018-12-22T09:28:11.284Z,98267.30
2018-12-22T09:33:14.776Z,98289.98
2018-12-22T09:38:18.264Z,98302.66
2018-12-22T09:43:21.932Z,98320.89
2018-12-22T09:48:25.508Z,98337.29
2018-12-22T09:53:28.919Z,98333.61
2018-12-22T09:58:32.347Z,98333.45
2018-12-22T10:03:35.914Z,98336.12
2018-12-22T10:08:39.349Z,98343.46
2018-12-22T10:13:42.950Z,98346.09
2018-12-22T10:18:46.829Z,98344.73
2018-12-22T10:23:50.459Z,98349.83
2018-12-22T10:28:54.845Z,98362.63
2018-12-22T10:33:58.357Z,98362.02
2018-12-22T10:39:01.920Z,98354.40
2018-12-22T10:44:05.488Z,98375.73
2018-12-22T10:49:10.286Z,98391.90
2018-12-22T10:54:14.018Z,98388.53
2018-12-22T10:59:17.672Z,98385.86
2018-12-22T11:04:21.125Z,98395.41
2018-12-22T11:09:24.744Z,98410.73
2018-12-22T11:14:28.257Z,98399.76
2018-12-22T11:19:31.672Z,98403.52
2018-12-22T11:24:35.324Z,98409.07
2018-12-22T11:29:38.877Z,98416.55
2018-12-22T11:34:42.289Z,98433.95
2018-12-22T11:39:45.788Z,98431.02
2018-12-22T11:44:49.196Z,98419.01
2018-12-22T11:49:52.765Z,98419.59
2018-12-22T11:54:56.333Z,98416.16
2018-12-22T11:59:59.895Z,98428.18
2018-12-22T12:05:03.649Z,98444.50
2018-12-22T12:10:09.560Z,98451.37
2018-12-22T12:15:19.960Z,98447.84
2018-12-22T12:20:23.420Z,98458.53
2018-12-22T12:25:26.873Z,98460.37
2018-12-22T12:30:33.238Z,98459.39
2018-12-22T12:35:36.784Z,98458.88
2018-12-22T12:40:40.272Z,98467.38
2018-12-22T12:45:43.707Z,98462.98
2018-12-22T12:50:47.930Z,98474.86
2018-12-22T12:55:51.584Z,98471.02
2018-12-22T13:00:54.995Z,98472.60
2018-12-22T13:05:58.488Z,98479.36
2018-12-22T13:11:01.932Z,98491.70
2018-12-22T13:16:05.580Z,98495.59
2018-12-22T13:21:10.056Z,98504.09
2018-12-22T13:26:13.673Z,98511.93
2018-12-22T13:31:19.379Z,98514.08
2018-12-22T13:36:22.799Z,98519.88
2018-12-22T13:41:26.223Z,98514.17
2018-12-22T13:46:29.719Z,98510.66
2018-12-22T13:51:33.344Z,98521.35
2018-12-22T13:56:36.915Z,98521.24
2018-12-22T14:01:44.808Z,98528.62
2018-12-22T14:06:48.688Z,98539.63
2018-12-22T14:11:52.119Z,98547.25
2018-12-22T14:17:20.492Z,98567.22
2018-12-22T14:22:24.088Z,98551.14
2018-12-22T14:27:27.644Z,98565.31
2018-12-22T14:32:31.217Z,98563.39
2018-12-22T14:37:34.631Z,98557.71
2018-12-22T14:42:38.060Z,98567.13
2018-12-22T14:47:41.764Z,98566.91
2018-12-22T14:52:45.172Z,98573.80
2018-12-22T14:57:56.102Z,98577.05
2018-12-22T15:02:59.517Z,98583.97
2018-12-22T15:08:03.065Z,98585.02
2018-12-22T15:13:06.635Z,98588.06
2018-12-22T15:18:10.049Z,98602.06
2018-12-22T15:23:15.000Z,98606.27
2018-12-22T15:28:18.533Z,98606.98
2018-12-22T15:33:22.020Z,98608.92
2018-12-22T15:38:26.420Z,98611.91
2018-12-22T15:43:29.881Z,98623.17
2018-12-22T15:48:33.291Z,98627.27
2018-12-22T15:53:36.703Z,98632.56
2018-12-22T15:58:40.131Z,98637.37
2018-12-22T16:03:43.688Z,98639.30
2018-12-22T16:08:47.404Z,98638.44
2018-12-22T16:13:50.925Z,98640.97
2018-12-22T16:18:54.336Z,98648.17
2018-12-22T16:23:57.944Z,98657.20
2018-12-22T16:29:10.817Z,98671.67
2018-12-22T16:34:14.425Z,98677.34
2018-12-22T16:39:18.041Z,98675.28
2018-12-22T16:44:21.624Z,98684.68
2018-12-22T16:49:25.044Z,98679.66
2018-12-22T16:54:28.692Z,98681.81
2018-12-22T16:59:33.997Z,98690.13
2018-12-22T17:04:37.489Z,98695.62
2018-12-22T17:09:40.891Z,98700.34
2018-12-22T17:14:44.400Z,98713.56
2018-12-22T17:19:47.876Z,98709.56
2018-12-22T17:25:02.335Z,98720.50
2018-12-22T17:30:06.341Z,98713.14
2018-12-22T17:35:12.653Z,98739.61
2018-12-22T17:40:16.246Z,98738.19
2018-12-22T17:45:19.668Z,98743.44
2018-12-22T17:50:23.077Z,98764.22
2018-12-22T17:55:26.660Z,98774.12
2018-12-22T18:00:30.160Z,98778.97
2018-12-22T18:05:33.712Z,98782.83
2018-12-22T18:10:37.142Z,98793.78
2018-12-22T18:15:40.660Z,98805.73
2018-12-22T18:20:44.077Z,98797.56
2018-12-22T18:25:47.684Z,98814.52
2018-12-22T18:30:51.256Z,98816.52
2018-12-22T18:35:54.664Z,98818.00
2018-12-22T18:40:58.189Z,98828.98
2018-12-22T18:46:01.604Z,98833.71
2018-12-22T18:51:05.340Z,98838.65
2018-12-22T18:56:08.744Z,98850.33
2018-12-22T19:01:12.244Z,98855.18
2018-12-22T19:06:15.826Z,98864.48
2018-12-22T19:11:21.444Z,98868.21
2018-12-22T19:16:24.995Z,98860.55
2018-12-22T19:21:28.548Z,98859.66
2018-12-22T19:26:33.004Z,98858.86
2018-12-22T19:31:41.669Z,98873.24
2018-12-22T19:36:42.196Z,98867.34
2018-12-22T19:41:45.762Z,98888.13
2018-12-22T19:46:49.452Z,98888.38
2018-12-22T19:51:53.040Z,98892.24
2018-12-22T19:56:56.525Z,98894.44
2018-12-22T20:02:00.104Z,98914.61
2018-12-22T20:07:03.742Z,98914.95
2018-12-22T20:12:07.244Z,98892.52
2018-12-22T20:17:10.684Z,98892.73
2018-12-22T20:22:14.347Z,98905.27
2018-12-22T20:27:17.972Z,98900.45
2018-12-22T20:32:21.495Z,98917.44
2018-12-22T20:37:24.921Z,98921.84
2018-12-22T20:42:28.619Z,98922.06
2018-12-22T20:47:32.220Z,98927.43
2018-12-22T20:52:35.684Z,98938.09
2018-12-22T20:57:39.368Z,98942.26
2018-12-22T21:02:42.883Z,98946.52
2018-12-22T21:07:46.449Z,98954.58
2018-12-22T21:12:49.864Z,98961.67
2018-12-22T21:17:53.377Z,98959.64
2018-12-22T21:22:56.833Z,98962.91
2018-12-22T21:28:00.356Z,98963.12
2018-12-22T21:33:04.599Z,98956.08
2018-12-22T21:38:08.060Z,98957.73
2018-12-22T21:43:11.510Z,98963.44
2018-12-22T21:48:15.232Z,98959.75
2018-12-22T21:53:18.849Z,98974.63
2018-12-22T21:58:22.565Z,98973.70
2018-12-22T22:03:26.073Z,98973.82
2018-12-22T22:08:29.597Z,98984.83
2018-12-22T22:13:33.064Z,98989.29
2018-12-22T22:18:36.471Z,99000.09
2018-12-22T22:23:40.032Z,99006.05
2018-12-22T22:28:43.552Z,99013.55
2018-12-22T22:33:47.404Z,99012.68
2018-12-22T22:38:50.836Z,99006.82
2018-12-22T22:43:54.432Z,99018.77
2018-12-22T22:48:57.936Z,99023.88
2018-12-22T22:54:01.464Z,99027.38
2018-12-22T22:59:04.896Z,99041.63
2018-12-22T23:04:08.692Z,99043.73
2018-12-22T23:09:12.296Z,99060.95
2018-12-22T23:14:15.776Z,99061.80
2018-12-22T23:19:19.237Z,99072.98
2018-12-22T23:24:22.712Z,99084.63
2018-12-22T23:29:26.224Z,99056.41
2018-12-22T23:34:29.742Z,99066.25
2018-12-22T23:39:33.312Z,99078.11
2018-12-22T23:44:36.731Z,99067.02
2018-12-22T23:54:52.133Z,99054.54
2018-12-22T23:59:55.572Z,99058.23
